Acle, United Kingdom
Current Conditions -  °F | °C
As of 10:20 AM on Tuesday 21 Oct 2014 (Local Time) from EGSD Reporting Station
Rain Showers Rain Showers  
Wind Chill: 57°   Ceiling: Unl
Heat Index: 57°   Visibility: 6mi
Dew Point: 55°   Wind: 23mph
Humidity: 94%   Direction: 270°W
Pressure: 29.41"   Gusts: 40mph
Location:  52.64°N, 1.55°E
Report Text: EGSD 210920Z 27020G35KT 9999 SHRA SQ FEW006 SCT015 14/13 Q0996
Loading
Personal Weather Stations






























Interactive Weather Map New forecast layout! Learn more

10-Day Weather Forecast

Advertisements
Track Severe Weather on mobile